| time (UTC) | temp C | wind direction | speed KPH | gust KPH | rain 1hr cm | rain 24hr cm | rain mn cm | humidity % | barometer mb |
| 20260505140333 | 0 | 328 | 3.2 | 4.8 | 0.05 | 0.91 | 0.64 | 94 | 1015.3 |
| 20260505124851 | 0 | 315 | 3.2 | 4.8 | 0.10 | 0.86 | 0.58 | 93 | 1014.6 |
| 20260505123337 | 1 | 360 | 4.8 | 9.7 | 0.08 | 0.84 | 0.56 | 93 | 1014.4 |
| 20260505121832 | 1 | 355 | 4.8 | 11.3 | 0.08 | 0.81 | 0.53 | 93 | 1014.4 |
| 20260505120331 | 1 | 336 | 6.4 | 12.9 | 0.08 | 0.79 | 0.51 | 92 | 1014.3 |
| 20260505114846 | 1 | 340 | 8.0 | 12.9 | 0.05 | 0.76 | 0.48 | 93 | 1014.2 |
| 20260505113350 | 2 | 29 | 4.8 | 12.9 | 0.08 | 0.76 | 0.48 | 92 | 1014.1 |
| 20260505111843 | 2 | 333 | 8.0 | 19.3 | 0.08 | 0.74 | 0.46 | 92 | 1014.0 |
| 20260505110328 | 2 | 350 | 6.4 | 16.1 | 0.10 | 0.71 | 0.43 | 91 | 1013.8 |
| 20260505101839 | 4 | 27 | 12.9 | 24.1 | 0.25 | 0.66 | 0.38 | 90 | 1012.9 |
| 20260505100334 | 5 | 360 | 8.0 | 16.1 | 0.20 | 0.61 | 0.33 | 91 | 1012.8 |
| 20260505094837 | 5 | 30 | 6.4 | 16.1 | 0.13 | 0.53 | 0.25 | 91 | 1012.4 |
| 20260505093351 | 5 | 13 | 6.4 | 17.7 | 0.03 | 0.43 | 0.15 | 91 | 1012.4 |
| 20260505091835 | 5 | 360 | 6.4 | 19.3 | 0.05 | 0.41 | 0.13 | 92 | 1012.2 |
| 20260505090341 | 5 | 11 | 6.4 | 16.1 | 0.10 | 0.41 | 0.13 | 92 | 1012.1 |
| 20260505084911 | 6 | 343 | 8.0 | 14.5 | 0.10 | 0.41 | 0.13 | 93 | 1011.8 |
| 20260505083343 | 5 | 336 | 9.7 | 16.1 | 0.13 | 0.41 | 0.13 | 92 | 1011.9 |
| 20260505081855 | 6 | 334 | 8.0 | 17.7 | 0.08 | 0.36 | 0.08 | 91 | 1012.1 |
| 20260505080348 | 6 | 334 | 8.0 | 19.3 | 0.03 | 0.30 | 0.03 | 90 | 1012.0 |
| 20260505074841 | 7 | 53 | 11.3 | 19.3 | 0.03 | 0.30 | 0.03 | 87 | 1012.0 |
| 20260505073330 | 8 | 330 | 11.3 | 19.3 | 0.00 | 0.28 | 0.00 | 89 | 1012.0 |
| 20260505071838 | 8 | 5 | 3.2 | 4.8 | 0.00 | 0.28 | 0.00 | 90 | 1011.9 |
| 20260505070329 | 8 | 131 | 0.0 | 0.0 | 0.00 | 0.28 | 0.00 | 88 | 1011.6 |
| 20260505064837 | 8 | 128 | 0.0 | 1.6 | 0.00 | 0.28 | 0.00 | 88 | 1011.3 |
| 20260505063348 | 8 | 179 | 0.0 | 0.0 | 0.00 | 0.28 | 0.00 | 88 | 1011.6 |
| 20260505061831 | 8 | 209 | 0.0 | 0.0 | 0.00 | 0.28 | 0.00 | 89 | 1011.4 |
| 20260505060345 | 8 | 209 | 0.0 | 0.0 | 0.00 | 0.28 | 0.00 | 88 | 1011.6 |
| 20260505054833 | 8 | 209 | 0.0 | 3.2 | 0.00 | 0.28 | 0.28 | 87 | 1011.6 |
| 20260505053356 | 8 | 163 | 0.0 | 4.8 | 0.00 | 0.28 | 0.28 | 86 | 1011.2 |
| 20260505051829 | 8 | 181 | 1.6 | 9.7 | 0.00 | 0.28 | 0.28 | 86 | 1011.2 |
| 20260505050339 | 8 | 209 | 3.2 | 11.3 | 0.00 | 0.28 | 0.28 | 86 | 1011.2 |
| 20260505040327 | 9 | 198 | 3.2 | 8.0 | 0.18 | 0.28 | 0.28 | 88 | 1011.7 |
| 20260505034848 | 9 | 210 | 0.0 | 6.4 | 0.23 | 0.25 | 0.25 | 87 | 1011.6 |
| 20260505033328 | 9 | 260 | 6.4 | 11.3 | 0.25 | 0.25 | 0.25 | 86 | 1011.8 |
| 20260505031851 | 9 | 283 | 4.8 | 14.5 | 0.15 | 0.15 | 0.15 | 85 | 1011.6 |
| 20260505030350 | 10 | 293 | 6.4 | 11.3 | 0.10 | 0.10 | 0.10 | 82 | 1011.4 |
| 20260505024831 | 10 | 327 | 1.6 | 6.4 | 0.03 | 0.03 | 0.03 | 79 | 1011.0 |
| 20260505023346 | 10 | 334 | 3.2 | 6.4 | 0.00 | 0.00 | 0.00 | 75 | 1010.7 |
| 20260505021832 | 11 | 317 | 3.2 | 6.4 | 0.00 | 0.00 | 0.00 | 72 | 1010.5 |
| 20260505020351 | 11 | 284 | 1.6 | 8.0 | 0.00 | 0.00 | 0.00 | 72 | 1010.7 |
| 20260505014827 | 11 | 304 | 3.2 | 8.0 | 0.00 | 0.00 | 0.00 | 71 | 1010.6 |
| 20260505013348 | 11 | 323 | 6.4 | 16.1 | 0.00 | 0.00 | 0.00 | 69 | 1010.2 |
| 20260505011827 | 12 | 336 | 14.5 | 27.4 | 0.00 | 0.00 | 0.00 | 65 | 1010.1 |
| 20260505010352 | 13 | 17 | 6.4 | 11.3 | 0.00 | 0.00 | 0.00 | 60 | 1009.8 |
| 20260505004841 | 14 | 327 | 4.8 | 8.0 | 0.00 | 0.00 | 0.00 | 51 | 1009.8 |
| 20260505003347 | 14 | 17 | 6.4 | 9.7 | 0.00 | 0.00 | 0.00 | 50 | 1009.5 |
| 20260505001833 | 15 | 331 | 8.0 | 12.9 | 0.00 | 0.00 | 0.00 | 50 | 1009.5 |
| 20260505000346 | 15 | 25 | 9.7 | 16.1 | 0.00 | 0.00 | 0.00 | 50 | 1009.3 |
| 20260504234830 | 15 | 277 | 9.7 | 17.7 | 0.00 | 0.00 | 0.00 | 45 | 1009.3 |
| 20260504233344 | 16 | 15 | 6.4 | 14.5 | 0.00 | 0.00 | 0.00 | 41 | 1009.0 |
| 20260504231828 | 16 | 309 | 6.4 | 20.9 | 0.00 | 0.00 | 0.00 | 44 | 1009.0 |
| 20260504230345 | 16 | 337 | 14.5 | 25.7 | 0.00 | 0.00 | 0.00 | 44 | 1009.1 |
| 20260504224904 | 17 | 306 | 14.5 | 24.1 | 0.00 | 0.00 | 0.00 | 38 | 1009.2 |
| 20260504223356 | 16 | 329 | 6.4 | 12.9 | 0.00 | 0.00 | 0.00 | 36 | 1008.9 |
| 20260504221839 | 16 | 316 | 8.0 | 16.1 | 0.00 | 0.00 | 0.00 | 36 | 1008.5 |
| 20260504220323 | 17 | 5 | 9.7 | 24.1 | 0.00 | 0.00 | 0.00 | 37 | 1008.1 |
| 20260504214912 | 18 | 355 | 12.9 | 30.6 | 0.00 | 0.00 | 0.00 | 36 | 1007.9 |
| 20260504213327 | 19 | 82 | 19.3 | 32.2 | 0.00 | 0.00 | 0.00 | 31 | 1008.1 |
| 20260504211836 | 19 | 360 | 12.9 | 27.4 | 0.00 | 0.00 | 0.00 | 33 | 1008.3 |
| 20260504210406 | 18 | 11 | 16.1 | 32.2 | 0.00 | 0.00 | 0.00 | 31 | 1008.6 |
| 20260504204907 | 21 | 20 | 6.4 | 14.5 | 0.00 | 0.00 | 0.00 | 25 | 1008.3 |
| 20260504203336 | 20 | 238 | 1.6 | 22.5 | 0.00 | 0.00 | 0.00 | 27 | 1008.1 |
| 20260504201851 | 19 | 209 | 8.0 | 19.3 | 0.00 | 0.00 | 0.00 | 28 | 1007.9 |
| 20260504200343 | 19 | 213 | 11.3 | 27.4 | 0.00 | 0.00 | 0.00 | 28 | 1007.8 |
| 20260504194845 | 21 | 210 | 17.7 | 40.2 | 0.00 | 0.00 | 0.00 | 24 | 1008.0 |
| 20260504193335 | 22 | 315 | 9.7 | 16.1 | 0.00 | 0.00 | 0.00 | 18 | 1007.6 |
| 20260504191838 | 23 | 316 | 8.0 | 20.9 | 0.00 | 0.00 | 0.00 | 17 | 1007.5 |
| 20260504190332 | 22 | 324 | 8.0 | 17.7 | 0.00 | 0.00 | 0.00 | 18 | 1007.4 |
| 20260504184838 | 22 | 290 | 8.0 | 24.1 | 0.00 | 0.00 | 0.00 | 19 | 1007.5 |
| 20260504183354 | 23 | 315 | 12.9 | 22.5 | 0.00 | 0.00 | 0.00 | 18 | 1007.7 |
| 20260504181842 | 23 | 289 | 9.7 | 27.4 | 0.00 | 0.00 | 0.00 | 19 | 1007.8 |
| 20260504180351 | 22 | 321 | 12.9 | 25.7 | 0.00 | 0.00 | 0.00 | 21 | 1008.1 |
| 20260504174833 | 22 | 248 | 14.5 | 29.0 | 0.00 | 0.00 | 0.00 | 23 | 1008.5 |
| 20260504173354 | 21 | 304 | 17.7 | 29.0 | 0.00 | 0.00 | 0.00 | 24 | 1008.8 |
| 20260504171837 | 21 | 273 | 16.1 | 32.2 | 0.00 | 0.00 | 0.00 | 24 | 1008.9 |
| 20260504170345 | 20 | 240 | 14.5 | 27.4 | 0.00 | 0.00 | 0.00 | 25 | 1008.9 |
| 20260504160331 | 18 | 265 | 9.7 | 17.7 | 0.00 | 0.00 | 0.00 | 28 | 1009.3 |
| 20260504150324 | 16 | 231 | 8.0 | 12.9 | 0.00 | 0.00 | 0.00 | 32 | 1009.4 |